createdAt,value
2022-11-29T00:01:01.763Z,14.70
2022-11-29T00:03:29.207Z,15.07
2022-11-29T00:05:56.592Z,14.83
2022-11-29T00:08:24.276Z,16.23
2022-11-29T00:10:51.145Z,15.00
2022-11-29T00:13:18.148Z,14.73
2022-11-29T00:15:45.133Z,15.40
2022-11-29T00:18:12.099Z,13.98
2022-11-29T00:20:39.684Z,14.88
2022-11-29T00:23:06.652Z,13.50
2022-11-29T00:25:33.713Z,13.98
2022-11-29T00:28:00.595Z,14.93
2022-11-29T00:30:28.216Z,12.88
2022-11-29T00:32:55.288Z,13.90
2022-11-29T00:35:22.749Z,14.15
2022-11-29T00:37:49.693Z,14.70
2022-11-29T00:40:16.812Z,15.15
2022-11-29T00:42:43.720Z,14.93
2022-11-29T00:45:11.531Z,13.38
2022-11-29T00:47:38.416Z,13.20
2022-11-29T00:50:06.422Z,14.20
2022-11-29T00:52:33.420Z,14.10
2022-11-29T00:55:00.414Z,14.50
2022-11-29T00:57:27.379Z,14.05
2022-11-29T00:59:54.279Z,14.95
2022-11-29T01:02:21.329Z,14.57
2022-11-29T01:04:48.329Z,13.43
2022-11-29T01:07:15.196Z,13.73
2022-11-29T01:09:42.236Z,15.00
2022-11-29T01:12:09.172Z,13.57
2022-11-29T01:14:36.169Z,14.18
2022-11-29T01:17:03.156Z,15.37
2022-11-29T01:19:30.148Z,14.25
2022-11-29T01:21:57.019Z,13.88
2022-11-29T01:24:23.862Z,14.52
2022-11-29T01:26:50.773Z,14.88
2022-11-29T01:29:17.781Z,13.73
2022-11-29T01:31:44.851Z,13.85
2022-11-29T01:34:11.776Z,14.18
2022-11-29T01:36:38.708Z,14.63
2022-11-29T01:39:06.876Z,15.20
2022-11-29T01:41:35.871Z,15.15
2022-11-29T01:44:11.924Z,15.07
2022-11-29T01:46:41.068Z,14.93
2022-11-29T01:49:37.794Z,12.93
2022-11-29T01:52:11.264Z,14.45
2022-11-29T01:54:42.326Z,14.37
2022-11-29T01:57:10.567Z,12.63
2022-11-29T01:59:41.724Z,15.90
2022-11-29T02:02:45.309Z,13.55
2022-11-29T02:05:14.875Z,14.20
2022-11-29T02:07:46.059Z,14.10
2022-11-29T02:10:15.631Z,14.30
2022-11-29T02:13:21.588Z,14.63
2022-11-29T02:16:12.300Z,13.55
2022-11-29T02:19:33.157Z,14.35
2022-11-29T02:22:15.177Z,14.57
2022-11-29T02:24:56.183Z,13.55
2022-11-29T02:27:36.199Z,15.27
2022-11-29T02:30:19.138Z,14.20
2022-11-29T02:33:24.027Z,14.30
2022-11-29T02:36:39.753Z,13.02
2022-11-29T02:39:28.132Z,13.90
2022-11-29T02:42:08.306Z,14.77
2022-11-29T02:44:44.495Z,14.15
2022-11-29T02:47:26.459Z,14.38
2022-11-29T02:50:27.048Z,13.75
2022-11-29T02:53:18.551Z,14.75
2022-11-29T02:56:13.603Z,14.13
2022-11-29T02:59:11.517Z,14.05
2022-11-29T03:01:57.872Z,15.00
2022-11-29T03:04:51.848Z,15.10
2022-11-29T03:07:47.711Z,14.02
2022-11-29T03:10:37.019Z,14.48
2022-11-29T03:13:10.235Z,14.73
2022-11-29T03:15:57.656Z,14.20
2022-11-29T03:18:45.611Z,13.57
2022-11-29T03:21:34.843Z,14.73
2022-11-29T03:24:09.072Z,14.90
2022-11-29T03:26:44.068Z,14.10
2022-11-29T03:29:22.819Z,14.05
2022-11-29T03:31:52.335Z,13.20
2022-11-29T03:34:39.614Z,14.40
2022-11-29T03:37:15.640Z,14.93
2022-11-29T03:39:50.595Z,14.40
2022-11-29T03:42:25.947Z,14.40
2022-11-29T03:45:21.550Z,14.55
2022-11-29T03:47:57.657Z,14.60
2022-11-29T03:50:33.120Z,14.02
2022-11-29T03:53:41.997Z,13.73
2022-11-29T03:56:35.412Z,14.40
2022-11-29T03:59:18.042Z,13.27
2022-11-29T04:02:29.676Z,13.70
2022-11-29T04:05:11.397Z,15.30
2022-11-29T04:08:01.877Z,14.65
2022-11-29T04:10:50.322Z,14.57
2022-11-29T04:14:01.143Z,13.97
2022-11-29T04:17:02.063Z,13.65
2022-11-29T04:20:05.118Z,15.43
2022-11-29T04:22:50.118Z,14.45
2022-11-29T04:25:59.079Z,14.50
2022-11-29T04:28:55.130Z,16.10
2022-11-29T04:31:45.748Z,16.40
2022-11-29T04:34:47.529Z,14.65
2022-11-29T04:37:51.047Z,15.15
2022-11-29T04:40:35.753Z,14.95
2022-11-29T04:43:20.460Z,18.40
2022-11-29T04:45:56.203Z,14.60
2022-11-29T04:48:41.847Z,17.23
2022-11-29T04:51:27.647Z,13.35
2022-11-29T04:53:58.111Z,15.98
2022-11-29T04:56:45.714Z,15.25
2022-11-29T04:59:28.004Z,16.47
2022-11-29T05:02:20.022Z,14.48
2022-11-29T05:04:58.975Z,14.60
2022-11-29T05:07:37.186Z,16.48
2022-11-29T05:10:33.508Z,13.30
2022-11-29T05:13:06.182Z,14.85
2022-11-29T05:15:44.729Z,13.95
2022-11-29T05:18:17.439Z,15.43
2022-11-29T05:21:08.948Z,12.93
2022-11-29T05:23:57.443Z,13.38
2022-11-29T05:26:47.151Z,13.88
2022-11-29T05:29:32.340Z,15.02
2022-11-29T05:32:37.780Z,14.80
2022-11-29T05:35:42.150Z,13.40
2022-11-29T05:38:30.771Z,13.20
2022-11-29T05:41:23.695Z,13.93
2022-11-29T05:44:12.043Z,15.40
2022-11-29T05:46:47.757Z,14.27
2022-11-29T05:49:34.590Z,14.60
2022-11-29T05:52:24.307Z,13.30
2022-11-29T05:55:10.394Z,14.75
2022-11-29T05:57:37.156Z,13.93
2022-11-29T06:00:09.939Z,14.70
2022-11-29T06:02:56.158Z,15.07
2022-11-29T06:06:01.033Z,15.10
2022-11-29T06:08:48.752Z,13.65
2022-11-29T06:11:27.045Z,13.50
2022-11-29T06:14:05.702Z,14.60
2022-11-29T06:16:51.158Z,15.38
2022-11-29T06:19:40.575Z,13.30
2022-11-29T06:22:23.701Z,14.20
2022-11-29T06:24:56.563Z,13.60
2022-11-29T06:27:26.077Z,14.82
2022-11-29T06:30:10.907Z,14.68
2022-11-29T06:33:01.133Z,14.55
2022-11-29T06:35:27.983Z,15.98
2022-11-29T06:37:57.072Z,16.92
2022-11-29T06:40:24.143Z,13.30
2022-11-29T06:42:51.126Z,16.13
2022-11-29T06:45:18.199Z,14.63
2022-11-29T06:47:47.827Z,14.30
2022-11-29T06:50:35.659Z,14.83
2022-11-29T06:53:11.535Z,15.57
2022-11-29T06:56:01.780Z,14.57
2022-11-29T06:58:36.176Z,15.18
2022-11-29T07:01:19.439Z,15.93
2022-11-29T07:04:03.991Z,13.63
2022-11-29T07:06:34.213Z,16.30
2022-11-29T07:09:08.580Z,16.42
2022-11-29T07:11:36.084Z,16.30
2022-11-29T07:14:03.217Z,14.98
2022-11-29T07:16:44.292Z,15.23
2022-11-29T07:19:35.807Z,13.95
2022-11-29T07:22:14.592Z,14.82
2022-11-29T07:25:10.195Z,14.87
2022-11-29T07:27:45.924Z,14.50
2022-11-29T07:30:46.294Z,14.45
2022-11-29T07:33:38.236Z,14.43
2022-11-29T07:36:42.644Z,15.10
2022-11-29T07:39:12.453Z,15.27
2022-11-29T07:42:06.439Z,14.48
2022-11-29T07:44:58.888Z,13.95
2022-11-29T07:47:25.618Z,14.65
2022-11-29T07:49:52.315Z,14.32
2022-11-29T07:52:19.296Z,14.95
2022-11-29T07:54:46.379Z,14.50
2022-11-29T07:57:13.344Z,14.60
2022-11-29T07:59:40.145Z,14.48
2022-11-29T08:02:11.644Z,14.05
2022-11-29T08:04:44.080Z,14.80
2022-11-29T08:07:11.594Z,14.30
2022-11-29T08:09:38.400Z,13.07
2022-11-29T08:12:05.439Z,15.48
2022-11-29T08:14:33.323Z,15.40
2022-11-29T08:17:00.138Z,14.45
2022-11-29T08:19:26.974Z,14.73
2022-11-29T08:21:53.878Z,13.60
2022-11-29T08:24:20.809Z,13.52
2022-11-29T08:26:47.859Z,16.67
2022-11-29T08:29:15.242Z,16.50
2022-11-29T08:31:42.087Z,15.87
2022-11-29T08:34:10.572Z,14.23
2022-11-29T08:36:37.713Z,14.80
2022-11-29T08:39:09.262Z,15.60
2022-11-29T08:41:37.028Z,15.75
2022-11-29T08:44:05.631Z,14.70
2022-11-29T08:46:50.952Z,16.73
2022-11-29T08:49:18.322Z,23.63
2022-11-29T08:51:45.199Z,23.80
2022-11-29T08:54:12.575Z,22.80
2022-11-29T08:59:26.275Z,22.13
2022-11-29T09:01:53.097Z,19.80
2022-11-29T09:04:19.899Z,18.13
2022-11-29T09:06:49.479Z,17.60
2022-11-29T09:09:16.857Z,17.83
2022-11-29T09:11:49.114Z,17.67
2022-11-29T09:14:17.309Z,19.25
2022-11-29T09:16:44.238Z,17.45
2022-11-29T09:19:13.965Z,18.80
2022-11-29T09:21:40.922Z,21.50
2022-11-29T09:24:09.205Z,21.80
2022-11-29T09:26:37.840Z,20.00
2022-11-29T09:29:06.510Z,21.58
2022-11-29T09:31:34.824Z,17.75
2022-11-29T09:34:01.644Z,18.48
2022-11-29T09:36:30.277Z,19.63
2022-11-29T09:38:58.090Z,17.08
2022-11-29T09:41:48.088Z,16.50
2022-11-29T09:44:37.131Z,18.00
2022-11-29T09:47:22.178Z,17.92
2022-11-29T09:50:23.168Z,18.80
2022-11-29T09:53:06.265Z,20.65
2022-11-29T09:55:59.307Z,17.88
2022-11-29T09:58:31.876Z,18.38
2022-11-29T10:01:07.245Z,17.05
2022-11-29T10:03:36.372Z,19.63
2022-11-29T10:06:45.009Z,17.08
2022-11-29T10:09:33.916Z,16.75
2022-11-29T10:12:07.306Z,18.80
2022-11-29T10:14:43.533Z,17.45
2022-11-29T10:17:24.816Z,17.35
2022-11-29T10:19:57.477Z,19.10
2022-11-29T10:22:53.539Z,17.90
2022-11-29T10:25:45.176Z,18.42
2022-11-29T10:28:21.765Z,16.50
2022-11-29T10:30:51.196Z,20.02
2022-11-29T10:33:32.287Z,17.00
2022-11-29T10:36:05.186Z,18.42
2022-11-29T10:38:32.255Z,18.10
2022-11-29T10:41:07.941Z,19.00
2022-11-29T10:43:37.222Z,17.15
2022-11-29T10:46:05.915Z,18.83
2022-11-29T10:48:34.162Z,15.98
2022-11-29T10:51:02.004Z,19.77
2022-11-29T10:53:37.016Z,18.08
2022-11-29T10:56:29.421Z,15.93
2022-11-29T10:59:03.275Z,18.85
2022-11-29T11:01:32.326Z,19.35
2022-11-29T11:04:00.891Z,19.77
2022-11-29T11:06:41.256Z,19.17
2022-11-29T11:09:21.556Z,18.80
2022-11-29T11:11:58.248Z,15.10
2022-11-29T11:14:31.571Z,19.02
2022-11-29T11:17:21.064Z,17.90
2022-11-29T11:20:08.530Z,18.55
2022-11-29T11:22:39.724Z,18.13
2022-11-29T11:25:25.140Z,18.40
2022-11-29T11:27:52.270Z,17.20
2022-11-29T11:30:23.991Z,18.70
2022-11-29T11:33:20.943Z,17.15
2022-11-29T11:36:20.212Z,18.20
2022-11-29T11:38:51.009Z,17.25
2022-11-29T11:41:50.808Z,17.55
2022-11-29T11:44:47.570Z,19.35
2022-11-29T11:47:21.935Z,16.20
2022-11-29T11:49:54.946Z,17.75
2022-11-29T11:52:28.052Z,16.70
2022-11-29T11:55:01.102Z,16.25
2022-11-29T11:57:28.899Z,15.30
2022-11-29T12:00:04.973Z,14.98
2022-11-29T12:02:40.964Z,16.90
2022-11-29T12:05:17.038Z,16.00
2022-11-29T12:10:39.891Z,16.15
2022-11-29T12:13:17.236Z,15.70
2022-11-29T12:15:46.505Z,17.85
2022-11-29T12:18:37.992Z,16.00
2022-11-29T12:21:17.546Z,14.98
2022-11-29T12:23:53.425Z,14.85
2022-11-29T12:26:56.424Z,14.70
2022-11-29T12:29:22.352Z,15.20
2022-11-29T12:32:11.603Z,15.23
2022-11-29T12:34:56.524Z,15.07
2022-11-29T12:37:51.760Z,15.70
2022-11-29T12:40:44.536Z,15.40
2022-11-29T12:43:33.097Z,15.90
2022-11-29T12:46:15.185Z,14.55
2022-11-29T12:48:58.959Z,17.45
2022-11-29T12:51:38.053Z,15.15
2022-11-29T12:54:46.376Z,14.35
2022-11-29T12:57:32.364Z,15.50
2022-11-29T13:00:12.978Z,14.88
2022-11-29T13:02:46.483Z,14.57
2022-11-29T13:05:39.914Z,15.90
2022-11-29T13:08:36.016Z,16.73
2022-11-29T13:11:25.873Z,15.90
2022-11-29T13:14:42.215Z,15.10
2022-11-29T13:17:28.312Z,15.17
2022-11-29T13:23:02.761Z,16.23
2022-11-29T13:25:41.941Z,15.98
2022-11-29T13:28:19.396Z,15.70
2022-11-29T13:30:46.689Z,16.13
2022-11-29T13:33:28.612Z,16.37
2022-11-29T13:36:14.571Z,18.90
2022-11-29T13:39:19.252Z,16.75
2022-11-29T13:42:05.027Z,16.80
2022-11-29T13:44:51.424Z,18.63
2022-11-29T13:47:19.779Z,16.67
2022-11-29T13:50:02.699Z,17.07
2022-11-29T13:52:40.896Z,16.00
2022-11-29T13:55:14.648Z,17.30
2022-11-29T13:58:15.080Z,17.35
2022-11-29T14:00:50.260Z,16.33
2022-11-29T14:03:20.022Z,16.92
2022-11-29T14:05:49.677Z,16.27
2022-11-29T14:09:21.413Z,17.02
2022-11-29T14:11:57.108Z,17.08
2022-11-29T14:14:36.090Z,16.25
2022-11-29T14:17:05.123Z,17.95
2022-11-29T14:19:34.567Z,19.02
2022-11-29T14:22:07.570Z,16.45
2022-11-29T14:24:37.981Z,18.58
2022-11-29T14:27:12.447Z,18.02
2022-11-29T14:29:48.639Z,20.67
2022-11-29T14:32:49.600Z,22.92
2022-11-29T14:35:37.559Z,17.00
2022-11-29T14:38:31.264Z,16.80
2022-11-29T14:41:26.931Z,15.80
2022-11-29T14:44:28.238Z,17.90
2022-11-29T14:47:29.935Z,16.13
2022-11-29T14:49:59.499Z,16.50
2022-11-29T14:52:35.824Z,17.10
2022-11-29T14:55:14.717Z,16.10
2022-11-29T14:57:47.983Z,15.07
2022-11-29T15:00:21.267Z,16.37
2022-11-29T15:03:00.171Z,16.05
2022-11-29T15:05:58.083Z,15.13
2022-11-29T15:08:46.680Z,16.17
2022-11-29T15:11:18.259Z,16.02
2022-11-29T15:14:26.455Z,16.73
2022-11-29T15:17:19.881Z,16.30
2022-11-29T15:20:01.673Z,16.55
2022-11-29T15:22:44.660Z,17.85
2022-11-29T15:25:19.236Z,18.55
2022-11-29T15:27:59.797Z,17.88
2022-11-29T15:30:37.585Z,20.33
2022-11-29T15:33:07.971Z,18.10
2022-11-29T15:35:36.376Z,18.60
2022-11-29T15:38:04.203Z,18.40
2022-11-29T15:40:35.608Z,20.00
2022-11-29T15:43:20.254Z,19.55
2022-11-29T15:45:55.638Z,20.30
2022-11-29T15:48:33.155Z,19.98
2022-11-29T15:51:03.066Z,20.27
2022-11-29T15:54:00.336Z,20.75
2022-11-29T15:56:55.108Z,22.27
2022-11-29T15:59:30.292Z,20.83
2022-11-29T16:02:02.539Z,22.52
2022-11-29T16:04:30.331Z,20.70
2022-11-29T16:06:59.026Z,21.90
2022-11-29T16:09:40.023Z,23.30
2022-11-29T16:12:14.704Z,21.92
2022-11-29T16:14:59.145Z,21.90
2022-11-29T16:17:29.599Z,23.40
2022-11-29T16:20:24.491Z,23.30
2022-11-29T16:23:08.384Z,22.15
2022-11-29T16:25:50.656Z,25.13
2022-11-29T16:28:18.980Z,22.92
2022-11-29T16:30:46.380Z,24.73
2022-11-29T16:33:21.465Z,24.60
2022-11-29T16:35:48.887Z,25.80
2022-11-29T16:38:22.154Z,24.83
2022-11-29T16:41:04.568Z,25.02
2022-11-29T16:43:53.731Z,27.60
2022-11-29T16:46:20.816Z,25.23
2022-11-29T16:48:55.892Z,27.00
2022-11-29T16:51:38.796Z,26.42
2022-11-29T16:54:21.200Z,25.38
2022-11-29T16:56:49.432Z,25.42
2022-11-29T16:59:26.971Z,28.23
2022-11-29T17:01:58.458Z,24.20
2022-11-29T17:04:26.095Z,25.20
2022-11-29T17:06:56.608Z,26.88
2022-11-29T17:09:27.277Z,25.60
2022-11-29T17:11:56.048Z,24.60
2022-11-29T17:14:23.189Z,28.00
2022-11-29T17:16:51.980Z,26.93
2022-11-29T17:19:24.079Z,26.20
2022-11-29T17:21:52.892Z,25.92
2022-11-29T17:24:21.684Z,24.87
2022-11-29T17:26:49.335Z,25.17
2022-11-29T17:29:17.481Z,25.63
2022-11-29T17:31:46.209Z,23.20
2022-11-29T17:34:13.680Z,26.23
2022-11-29T17:36:40.807Z,26.23
2022-11-29T17:39:08.642Z,29.00
2022-11-29T17:41:36.318Z,26.35
2022-11-29T17:44:04.142Z,27.38
2022-11-29T17:46:36.438Z,28.20
2022-11-29T17:49:08.593Z,29.35
2022-11-29T17:51:55.449Z,34.97
2022-11-29T17:54:22.994Z,33.53
2022-11-29T17:56:50.571Z,31.33
2022-11-29T17:59:17.770Z,30.95
2022-11-29T18:01:47.205Z,32.17
2022-11-29T18:04:14.953Z,31.63
2022-11-29T18:06:42.192Z,28.17
2022-11-29T18:09:10.708Z,28.55
2022-11-29T18:11:48.125Z,29.95
2022-11-29T18:14:18.844Z,28.25
2022-11-29T18:16:46.155Z,35.83
2022-11-29T18:19:15.841Z,33.30
2022-11-29T18:21:42.870Z,31.15
2022-11-29T18:24:10.525Z,34.97
2022-11-29T18:26:38.700Z,33.33
2022-11-29T18:29:06.965Z,30.70
2022-11-29T18:31:36.587Z,27.50
2022-11-29T18:34:09.939Z,29.60
2022-11-29T18:36:45.877Z,29.48
2022-11-29T18:39:15.474Z,30.65
2022-11-29T18:41:47.975Z,34.17
2022-11-29T18:44:17.020Z,36.20
2022-11-29T18:46:45.022Z,38.58
2022-11-29T18:49:17.283Z,43.85
2022-11-29T18:51:45.654Z,42.75
2022-11-29T18:54:17.351Z,45.50
2022-11-29T18:56:45.433Z,48.05
2022-11-29T18:59:17.298Z,53.97
2022-11-29T19:01:46.517Z,31.02
2022-11-29T19:04:23.500Z,34.22
2022-11-29T19:06:50.642Z,28.55
2022-11-29T19:09:23.377Z,28.10
2022-11-29T19:11:50.949Z,30.73
2022-11-29T19:14:18.811Z,42.03
2022-11-29T19:16:47.565Z,34.28
2022-11-29T19:19:14.649Z,30.55
2022-11-29T19:21:42.221Z,30.83
2022-11-29T19:24:15.822Z,30.27
2022-11-29T19:26:45.635Z,32.33
2022-11-29T19:29:13.897Z,31.65
2022-11-29T19:31:41.711Z,38.88
2022-11-29T19:34:08.884Z,33.92
2022-11-29T19:36:42.599Z,32.42
2022-11-29T19:39:11.318Z,30.55
2022-11-29T19:41:38.971Z,31.50
2022-11-29T19:44:08.254Z,33.30
2022-11-29T19:46:45.669Z,33.20
2022-11-29T19:49:13.039Z,33.17
2022-11-29T19:51:40.317Z,32.05
2022-11-29T19:54:09.259Z,31.70
2022-11-29T19:56:36.764Z,30.30
2022-11-29T19:59:04.013Z,32.67
2022-11-29T20:01:40.226Z,31.83
2022-11-29T20:04:09.298Z,32.53
2022-11-29T20:06:36.977Z,30.95
2022-11-29T20:09:04.623Z,31.08
2022-11-29T20:11:31.549Z,32.83
2022-11-29T20:14:01.223Z,31.63
2022-11-29T20:16:29.794Z,33.75
2022-11-29T20:18:57.759Z,30.45
2022-11-29T20:21:30.384Z,33.07
2022-11-29T20:24:06.179Z,30.67
2022-11-29T20:26:35.405Z,32.03
2022-11-29T20:29:03.254Z,34.00
2022-11-29T20:31:32.196Z,34.90
2022-11-29T20:33:59.453Z,33.72
2022-11-29T20:36:59.707Z,35.00
2022-11-29T20:39:29.414Z,36.45
2022-11-29T20:42:33.226Z,34.03
2022-11-29T20:45:07.838Z,39.10
2022-11-29T20:47:50.545Z,35.83
2022-11-29T20:50:23.771Z,37.38
2022-11-29T20:53:18.426Z,38.10
2022-11-29T20:55:48.306Z,38.40
2022-11-29T20:58:15.946Z,38.38
2022-11-29T21:00:43.119Z,36.50
2022-11-29T21:03:14.666Z,35.38
2022-11-29T21:05:42.111Z,41.58
2022-11-29T21:08:09.173Z,36.67
2022-11-29T21:10:36.639Z,35.35
2022-11-29T21:13:04.051Z,36.25
2022-11-29T21:15:31.499Z,34.10
2022-11-29T21:17:58.852Z,33.38
2022-11-29T21:20:27.246Z,34.42
2022-11-29T21:23:33.441Z,33.05
2022-11-29T21:26:10.862Z,32.97
2022-11-29T21:28:46.635Z,33.78
2022-11-29T21:31:17.261Z,35.08
2022-11-29T21:33:44.825Z,33.90
2022-11-29T21:36:12.936Z,34.55
2022-11-29T21:38:40.148Z,33.13
2022-11-29T21:41:07.163Z,33.30
2022-11-29T21:44:04.357Z,34.45
2022-11-29T21:46:21.370Z,37.00
2022-11-29T21:48:50.015Z,37.07
2022-11-29T21:51:17.062Z,38.50
2022-11-29T21:53:44.061Z,34.60
2022-11-29T21:56:11.785Z,35.30
2022-11-29T21:58:39.743Z,35.63
2022-11-29T22:01:18.618Z,35.00
2022-11-29T22:03:46.016Z,33.80
2022-11-29T22:06:18.758Z,33.13
2022-11-29T22:08:46.526Z,33.72
2022-11-29T22:11:15.952Z,34.45
2022-11-29T22:14:03.260Z,34.27
2022-11-29T22:16:30.538Z,34.70
2022-11-29T22:18:57.720Z,34.30
2022-11-29T22:21:24.684Z,33.90
2022-11-29T22:23:54.609Z,31.45
2022-11-29T22:26:21.652Z,34.13
2022-11-29T22:28:48.802Z,30.27
2022-11-29T22:31:15.872Z,29.85
2022-11-29T22:33:42.780Z,30.60
2022-11-29T22:36:12.104Z,29.03
2022-11-29T22:38:39.754Z,30.88
2022-11-29T22:41:12.196Z,36.05
2022-11-29T22:43:40.482Z,33.47
2022-11-29T22:46:16.977Z,34.20
2022-11-29T22:48:46.159Z,36.88
2022-11-29T22:51:15.992Z,32.58
2022-11-29T22:53:47.848Z,33.08
2022-11-29T22:56:15.227Z,31.25
2022-11-29T22:58:42.245Z,30.77
2022-11-29T23:01:12.390Z,28.90
2022-11-29T23:03:41.997Z,28.90
2022-11-29T23:06:18.297Z,27.65
2022-11-29T23:08:46.929Z,34.15
2022-11-29T23:11:20.027Z,34.43
2022-11-29T23:13:47.201Z,34.33
2022-11-29T23:16:16.838Z,32.22
2022-11-29T23:18:45.732Z,32.83
2022-11-29T23:21:17.095Z,30.75
2022-11-29T23:23:44.383Z,31.27
2022-11-29T23:26:26.170Z,30.55
2022-11-29T23:28:54.348Z,30.45
2022-11-29T23:31:22.354Z,29.65
2022-11-29T23:33:49.807Z,30.33
2022-11-29T23:36:17.504Z,29.50
2022-11-29T23:38:44.765Z,30.23
2022-11-29T23:41:13.170Z,28.77
2022-11-29T23:43:41.487Z,28.40
2022-11-29T23:46:20.202Z,30.73
2022-11-29T23:48:47.351Z,27.38
2022-11-29T23:51:15.172Z,26.58
2022-11-29T23:53:42.701Z,26.55
2022-11-29T23:56:15.434Z,26.52
2022-11-29T23:58:43.905Z,26.92
